Time;durP1;ratioP1;P1;durP2;ratioP2;P2;SDS_P1;SDS_P2;PMS_P1;PMS_P2;Temp;Humidity;BMP_temperature;BMP_pressure;BME280_temperature;BME280_humidity;BME280_pressure;Samples;Min_cycle;Max_cycle;Signal;HPM_P1;HPM_P2
2023/10/22 00:18:09;;;;;;;2.00;1.77;;;15.80;92.00;;;;;;5051064;28;20467;-87
2023/10/22 00:21:46;;;;;;;2.00;0.70;;;15.80;92.10;;;;;;5034565;28;20502;-89
2023/10/22 00:29:15;;;;;;;;;;;;;;;;;;;;;
2023/10/22 00:32:40;;;;;;;3.23;1.10;;;15.60;92.50;;;;;;4993648;28;20480;-89
2023/10/22 00:36:13;;;;;;;2.30;0.80;;;15.70;92.60;;;;;;5018929;28;20567;-87
2023/10/22 00:56:47;;;;;;;1.03;0.70;;;15.40;93.90;;;;;;4943862;29;20450;-87
2023/10/22 00:59:52;;;;;;;5.30;1.30;;;15.40;94.10;;;;;;4926030;29;20527;-87
2023/10/22 01:03:19;;;;;;;4.10;1.40;;;15.40;94.00;;;;;;4877630;29;20503;-88
2023/10/22 01:07:06;;;;;;;3.13;0.73;;;15.30;94.00;;;;;;4835983;29;20964;-87
2023/10/22 01:13:45;;;;;;;1.97;0.97;;;15.30;94.50;;;;;;4807631;29;20644;-87
2023/10/22 01:20:45;;;;;;;5.60;0.67;;;15.20;94.80;;;;;;4799841;29;20518;-87
2023/10/22 01:23:54;;;;;;;1.30;0.83;;;15.20;95.20;;;;;;4805075;29;20543;-88
2023/10/22 01:31:14;;;;;;;;;;;;;;;;;;;;;
2023/10/22 01:34:04;;;;;;;1.43;0.70;;;15.10;95.70;;;;;;4818513;29;21420;-88
2023/10/22 01:37:28;;;;;;;1.13;0.57;;;15.00;95.90;;;;;;4935862;28;20555;-87
2023/10/22 01:40:18;;;;;;;2.63;0.87;;;15.10;96.00;;;;;;4981779;28;20491;-85
2023/10/22 01:43:56;;;;;;;3.10;0.70;;;15.10;96.00;;;;;;5025284;28;20505;-88
2023/10/22 01:47:20;;;;;;;1.73;0.60;;;15.10;96.10;;;;;;4958662;28;20503;-87
2023/10/22 01:54:40;;;;;;;1.53;0.73;;;15.10;96.40;;;;;;4887169;29;20499;-88
2023/10/22 02:12:29;;;;;;;1.73;0.87;;;15.00;97.00;;;;;;5067689;28;20514;-87
2023/10/22 02:15:57;;;;;;;1.03;0.70;;;14.90;97.00;;;;;;5049793;28;20424;-89
2023/10/22 02:19:09;;;;;;;0.73;0.57;;;15.00;97.40;;;;;;5055502;28;20452;-87
2023/10/22 02:22:11;;;;;;;3.00;0.87;;;14.90;97.60;;;;;;4971489;28;20456;-87
2023/10/22 02:26:04;;;;;;;3.97;0.80;;;15.00;97.80;;;;;;4995443;28;20506;-90
2023/10/22 02:29:31;;;;;;;4.17;1.00;;;15.00;97.70;;;;;;4930515;29;20809;-89
2023/10/22 02:32:41;;;;;;;3.13;0.90;;;14.90;98.00;;;;;;4864616;29;20504;-89
2023/10/22 02:36:08;;;;;;;;;;;;;;;;;;;;;
2023/10/22 02:39:42;;;;;;;2.53;0.60;;;15.00;98.20;;;;;;4861070;29;21004;-89
2023/10/22 02:43:34;;;;;;;2.30;0.90;;;15.00;98.10;;;;;;4850802;29;20538;-89
2023/10/22 02:47:07;;;;;;;1.07;0.70;;;14.90;98.70;;;;;;4918721;29;20530;-88
2023/10/22 02:54:34;;;;;;;0.93;0.70;;;14.80;98.80;;;;;;4843475;29;20429;-88
2023/10/22 03:41:36;;;;;;;2.80;0.80;;;14.90;99.20;;;;;;4937283;29;20484;-86
2023/10/22 03:52:05;;;;;;;1.63;0.67;;;14.90;99.40;;;;;;4936285;29;20491;-87
2023/10/22 03:56:07;;;;;;;;;;;;;;;;;;;;;
2023/10/22 03:59:06;;;;;;;0.43;0.40;;;14.90;99.70;;;;;;4953741;28;21074;-87
2023/10/22 04:05:41;;;;;;;1.53;0.50;;;14.90;99.60;;;;;;4981544;28;20461;-87
2023/10/22 04:09:03;;;;;;;0.40;0.40;;;14.90;99.80;;;;;;5005374;28;20488;-87
2023/10/22 04:12:34;;;;;;;2.20;0.50;;;14.90;99.90;;;;;;4962859;28;20465;-88
2023/10/22 04:15:56;;;;;;;0.90;0.40;;;14.90;99.70;;;;;;4965450;28;20462;-88
2023/10/22 04:22:43;;;;;;;;;;;;;;;;;;;;;
2023/10/22 04:25:51;;;;;;;0.37;0.30;;;14.90;99.90;;;;;;4896914;29;20535;-88
2023/10/22 04:28:47;;;;;;;0.60;0.40;;;14.80;99.90;;;;;;4882470;29;20444;-88
2023/10/22 04:32:33;;;;;;;0.40;0.30;;;14.80;99.90;;;;;;4882219;29;20480;-87
2023/10/22 04:36:05;;;;;;;0.80;0.40;;;14.80;99.90;;;;;;4855336;29;20451;-88
2023/10/22 04:39:16;;;;;;;0.40;0.30;;;14.80;99.90;;;;;;4881332;29;20938;-89
2023/10/22 04:45:17;;;;;;;0.97;0.30;;;14.80;99.90;;;;;;5200933;23;20564;-88
2023/10/22 05:07:42;;;;;;;0.40;0.40;;;14.90;99.90;;;;;;5073666;28;20431;-87
2023/10/22 05:10:44;;;;;;;0.93;0.50;;;14.90;99.90;;;;;;5019206;28;20527;-87
2023/10/22 05:13:22;;;;;;;0.57;0.43;;;14.90;99.90;;;;;;5044613;28;20451;-87
2023/10/22 05:17:17;;;;;;;0.60;0.50;;;14.80;99.90;;;;;;5000624;28;20466;-88
2023/10/22 05:20:15;;;;;;;0.40;0.30;;;14.90;99.90;;;;;;5010659;28;20466;-88
2023/10/22 05:27:12;;;;;;;0.53;0.40;;;14.80;99.90;;;;;;4935849;29;20920;-87
2023/10/22 05:31:12;;;;;;;1.17;0.50;;;14.70;99.90;;;;;;4929469;29;20448;-87
2023/10/22 05:34:41;;;;;;;0.50;0.37;;;14.90;99.90;;;;;;4900180;29;20542;-88
2023/10/22 05:37:31;;;;;;;0.50;0.40;;;14.80;99.90;;;;;;4898769;29;20481;-87
2023/10/22 05:44:24;;;;;;;0.50;0.40;;;14.80;99.90;;;;;;4807963;29;20448;-88
2023/10/22 05:47:32;;;;;;;0.80;0.40;;;14.90;99.90;;;;;;4805313;29;20436;-88
2023/10/22 05:50:31;;;;;;;0.40;0.40;;;14.90;99.90;;;;;;4806449;29;20440;-90
2023/10/22 05:57:15;;;;;;;0.40;0.30;;;14.90;99.90;;;;;;4974521;28;20445;-90
2023/10/22 06:00:30;;;;;;;1.03;0.40;;;14.90;99.90;;;;;;4987717;28;20537;-88
2023/10/22 06:03:36;;;;;;;0.60;0.40;;;15.00;99.90;;;;;;4961986;28;20456;-88
2023/10/22 06:07:24;;;;;;;0.50;0.40;;;14.90;99.90;;;;;;4956943;28;20454;-88
2023/10/22 06:10:34;;;;;;;0.60;0.40;;;15.00;99.90;;;;;;4933656;28;20457;-87
2023/10/22 06:13:56;;;;;;;0.40;0.40;;;15.00;99.90;;;;;;4910622;29;20446;-91
2023/10/22 06:16:57;;;;;;;0.77;0.40;;;15.00;99.90;;;;;;4972143;28;20547;-91
2023/10/22 06:19:52;;;;;;;0.50;0.50;;;14.90;99.90;;;;;;4991962;28;20503;-91
2023/10/22 06:30:07;;;;;;;1.00;0.60;;;14.20;99.90;;;;;;5079847;28;20490;-86
2023/10/22 06:36:39;;;;;;;0.80;0.50;;;14.10;99.90;;;;;;5069976;28;20455;-87
2023/10/22 06:43:33;;;;;;;0.87;0.40;;;14.00;99.90;;;;;;5081301;28;20499;-87
2023/10/22 06:46:52;;;;;;;0.47;0.40;;;14.00;99.90;;;;;;5018747;28;20445;-87
2023/10/22 06:53:46;;;;;;;0.60;0.50;;;13.90;99.90;;;;;;5059857;28;20519;-88
2023/10/22 06:56:50;;;;;;;0.50;0.40;;;13.90;99.90;;;;;;5014556;28;20546;-88
2023/10/22 06:59:41;;;;;;;0.60;0.60;;;13.90;99.90;;;;;;5072376;28;20470;-87
2023/10/22 07:02:50;;;;;;;0.77;0.50;;;13.80;99.90;;;;;;5064929;28;20492;-87
2023/10/22 07:05:53;;;;;;;0.77;0.40;;;13.80;99.90;;;;;;5056153;28;20440;-87
2023/10/22 07:09:11;;;;;;;0.93;0.50;;;13.70;99.90;;;;;;5022589;28;20470;-87
2023/10/22 07:12:11;;;;;;;1.37;0.70;;;13.70;99.90;;;;;;5031929;28;20474;-87
2023/10/22 07:15:13;;;;;;;;;;;;;;;;;;;;;
2023/10/22 07:21:19;;;;;;;1.17;0.57;;;13.70;99.90;;;;;;5074598;28;20478;-88
2023/10/22 07:24:38;;;;;;;0.83;0.73;;;13.70;99.90;;;;;;5054019;28;20452;-87
2023/10/22 07:27:52;;;;;;;1.23;0.50;;;13.70;99.90;;;;;;5052610;28;20487;-87
2023/10/22 07:31:23;;;;;;;1.37;1.10;;;13.70;99.90;;;;;;5047524;28;20447;-87
2023/10/22 07:34:12;;;;;;;0.97;0.50;;;13.60;99.90;;;;;;5065389;28;20459;-86
2023/10/22 07:37:18;;;;;;;1.03;0.80;;;13.60;99.90;;;;;;5057886;28;20482;-88
2023/10/22 07:40:18;;;;;;;0.70;0.57;;;13.60;99.90;;;;;;5025893;28;20462;-89
2023/10/22 07:43:39;;;;;;;1.03;0.80;;;13.60;99.90;;;;;;5067169;28;20454;-88
2023/10/22 07:47:11;;;;;;;1.10;0.63;;;13.60;99.90;;;;;;5054858;28;20526;-87
2023/10/22 07:50:44;;;;;;;1.70;1.17;;;13.60;99.90;;;;;;5045104;28;20550;-88
2023/10/22 08:00:44;;;;;;;0.70;0.70;;;13.70;99.90;;;;;;5051850;28;20486;-87
2023/10/22 08:04:19;;;;;;;0.60;0.60;;;13.80;99.90;;;;;;5049122;28;20811;-87
2023/10/22 08:08:15;;;;;;;0.80;0.50;;;13.80;99.90;;;;;;5061180;28;21065;-88
2023/10/22 08:11:31;;;;;;;1.00;0.77;;;13.80;99.90;;;;;;4975482;28;20473;-87
2023/10/22 08:14:23;;;;;;;1.13;0.70;;;13.90;99.90;;;;;;4975192;28;21150;-90
2023/10/22 08:17:51;;;;;;;1.00;0.70;;;13.90;99.90;;;;;;5060595;28;21116;-88
2023/10/22 08:20:48;;;;;;;0.90;0.60;;;13.80;99.90;;;;;;5041831;28;20471;-87
2023/10/22 08:23:46;;;;;;;0.80;0.80;;;14.00;99.90;;;;;;5055340;28;20454;-87
2023/10/22 08:27:17;;;;;;;0.60;0.60;;;14.00;99.90;;;;;;5053963;28;20498;-89
2023/10/22 08:34:04;;;;;;;1.40;1.30;;;13.90;99.90;;;;;;5060659;28;20423;-88
2023/10/22 08:36:59;;;;;;;0.60;0.60;;;13.80;99.90;;;;;;5052696;28;20442;-87
2023/10/22 08:40:21;;;;;;;1.53;1.23;;;13.80;99.90;;;;;;5067154;28;20479;-87
2023/10/22 08:43:40;;;;;;;2.33;0.60;;;13.80;99.90;;;;;;5048629;28;20489;-88
2023/10/22 08:50:50;;;;;;;0.70;0.50;;;13.90;99.90;;;;;;5035212;28;20470;-87
2023/10/22 08:54:10;;;;;;;;;;;;;;;;;;;;;
2023/10/22 08:57:38;;;;;;;;;;;;;;;;;;;;;
2023/10/22 09:00:56;;;;;;;1.67;1.50;;;14.40;99.90;;;;;;5028711;28;20897;-88
2023/10/22 09:04:09;;;;;;;1.00;0.70;;;14.30;99.90;;;;;;5022704;28;20571;-87
2023/10/22 09:11:06;;;;;;;;;;;;;;;;;;;;;
2023/10/22 09:13:59;;;;;;;2.33;0.80;;;14.40;99.90;;;;;;5033125;28;20477;-88
2023/10/22 09:17:19;;;;;;;;;;;;;;;;;;;;;
2023/10/22 09:20:48;;;;;;;1.60;0.70;;;14.10;99.90;;;;;;5074265;28;20471;-87
2023/10/22 09:24:16;;;;;;;1.10;0.80;;;14.10;99.90;;;;;;5052905;28;20459;-89
2023/10/22 09:27:43;;;;;;;;;;;;;;;;;;;;;
2023/10/22 09:31:08;;;;;;;1.03;0.63;;;14.00;99.90;;;;;;5017298;28;20802;-87
2023/10/22 09:34:07;;;;;;;1.33;1.23;;;14.00;99.90;;;;;;4925311;29;20462;-88
2023/10/22 09:37:11;;;;;;;;;;;;;;;;;;;;;
2023/10/22 09:40:31;;;;;;;0.70;0.53;;;14.30;99.90;;;;;;5023446;28;20441;-90
2023/10/22 09:43:51;;;;;;;1.87;1.27;;;14.50;99.90;;;;;;5012646;28;20504;-88
2023/10/22 09:47:19;;;;;;;1.70;1.50;;;14.30;99.90;;;;;;4990320;28;20453;-88
2023/10/22 09:50:18;;;;;;;0.90;0.90;;;14.40;99.90;;;;;;4914817;29;20548;-91
2023/10/22 09:53:40;;;;;;;0.73;0.73;;;14.50;99.90;;;;;;4922383;29;20947;-87
2023/10/22 09:56:45;;;;;;;2.27;2.17;;;14.40;99.90;;;;;;4899069;29;20451;-88
2023/10/22 10:00:07;;;;;;;1.47;1.40;;;14.30;99.90;;;;;;4931424;28;20454;-87
2023/10/22 10:06:12;;;;;;;1.43;0.80;;;14.20;99.90;;;;;;5052062;28;20552;-87
2023/10/22 10:09:28;;;;;;;1.73;1.17;;;14.50;99.90;;;;;;5035403;28;20443;-87
2023/10/22 10:12:59;;;;;;;3.40;2.50;;;14.30;99.90;;;;;;5017629;28;20469;-87
2023/10/22 10:20:11;;;;;;;1.90;0.87;;;14.20;99.90;;;;;;5001599;28;20546;-87
2023/10/22 10:23:35;;;;;;;1.50;1.10;;;14.10;99.90;;;;;;4991508;28;20445;-88
2023/10/22 10:26:45;;;;;;;0.80;0.80;;;14.20;99.90;;;;;;4953800;28;20437;-88
2023/10/22 10:29:34;;;;;;;1.40;0.73;;;14.20;99.90;;;;;;4986314;28;20447;-87
2023/10/22 10:32:46;;;;;;;1.10;0.90;;;14.20;99.90;;;;;;4985637;28;20509;-89
2023/10/22 10:43:34;;;;;;;3.97;3.67;;;14.90;99.90;;;;;;4960574;28;20439;-88
2023/10/22 10:50:39;;;;;;;0.77;0.77;;;14.90;99.90;;;;;;5041870;28;20457;-87
2023/10/22 10:53:55;;;;;;;0.87;0.60;;;14.60;99.90;;;;;;5015316;28;20477;-87
2023/10/22 10:56:53;;;;;;;2.10;1.60;;;14.50;99.90;;;;;;5046765;28;20448;-87
2023/10/22 11:03:33;;;;;;;1.20;0.87;;;14.40;99.90;;;;;;5087978;22;20484;-88
2023/10/22 11:06:42;;;;;;;0.67;0.60;;;14.30;99.90;;;;;;5071979;28;20463;-87
2023/10/22 11:09:57;;;;;;;0.80;0.80;;;14.30;99.90;;;;;;5051913;28;21007;-87
2023/10/22 11:12:51;;;;;;;1.50;0.90;;;14.40;99.90;;;;;;5044616;28;20487;-88
2023/10/22 11:24:33;;;;;;;0.93;0.93;;;14.40;99.90;;;;;;4941309;29;20469;-87
2023/10/22 11:28:24;;;;;;;2.80;0.80;;;14.50;99.90;;;;;;4979385;28;20993;-90
2023/10/22 11:32:07;;;;;;;1.10;1.00;;;14.40;99.90;;;;;;5054507;28;20974;-89
2023/10/22 11:38:51;;;;;;;1.27;1.17;;;14.40;99.90;;;;;;4924783;29;20467;-87
2023/10/22 11:53:04;;;;;;;1.60;1.50;;;14.80;99.90;;;;;;5088725;28;20478;-88
2023/10/22 13:25:44;;;;;;;3.53;3.23;;;15.20;99.90;;;;;;4997248;28;20399;-88
2023/10/22 13:29:35;;;;;;;3.47;3.13;;;15.10;99.90;;;;;;5060520;28;20454;-87
2023/10/22 13:33:17;;;;;;;4.03;2.60;;;14.90;99.90;;;;;;5014762;28;20514;-87
2023/10/22 13:40:03;;;;;;;3.00;2.80;;;15.40;99.90;;;;;;5085422;28;20426;-90
2023/10/22 13:43:21;;;;;;;2.60;2.40;;;15.40;99.90;;;;;;5078699;28;20463;-88
2023/10/22 15:18:32;;;;;;;2.57;2.37;;;15.70;99.90;;;;;;5041784;28;20539;-88
2023/10/22 15:21:16;;;;;;;2.93;2.73;;;15.60;99.90;;;;;;4999147;28;20509;-88
2023/10/22 15:24:26;;;;;;;3.00;2.80;;;15.60;99.90;;;;;;4987736;28;20448;-88
2023/10/22 16:31:30;;;;;;;2.70;2.50;;;15.10;99.90;;;;;;3156294;22;20740;-88
2023/10/22 17:04:29;;;;;;;;;;;;;;;;;;;;;
2023/10/22 17:08:19;;;;;;;;;;;;;;;;;;;;;
2023/10/22 17:11:28;;;;;;;;;;;;;;;;;;;;;
2023/10/22 19:54:55;;;;;;;1.97;1.87;;;15.00;99.90;;;;;;5041984;28;20443;-93
2023/10/22 20:02:27;;;;;;;;;;;;;;;;;;;;;
2023/10/22 21:09:06;;;;;;;2.30;2.10;;;14.90;99.90;;;;;;5275628;22;20473;-89
2023/10/22 21:12:50;;;;;;;;;;;;;;;;;;;;;
2023/10/22 23:43:40;;;;;;;1.20;1.10;;;14.80;99.90;;;;;;4941758;28;20494;-89
2023/10/22 23:47:15;;;;;;;2.10;1.20;;;14.70;99.90;;;;;;4962597;28;20440;-90
